Time;durP1;ratioP1;P1;durP2;ratioP2;P2;SDS_P1;SDS_P2;PMS_P1;PMS_P2;Temp;Humidity;BMP_temperature;BMP_pressure;BME280_temperature;BME280_humidity;BME280_pressure;Samples;Min_cycle;Max_cycle;Signal;HPM_P1;HPM_P2
2022/01/03 00:01:16;;;;;;;5.15;1.20;;;8.80;99.90;;;;;;5020933;28;20152;-78
2022/01/03 00:03:42;;;;;;;7.07;2.33;;;8.90;99.90;;;;;;5018463;28;20740;-78
2022/01/03 00:06:08;;;;;;;5.45;1.80;;;8.90;99.90;;;;;;5020449;28;20128;-78
2022/01/03 00:08:33;;;;;;;5.50;1.73;;;9.00;99.90;;;;;;5020208;28;20132;-77
2022/01/03 00:10:59;;;;;;;6.45;2.00;;;9.00;99.90;;;;;;5018616;28;20049;-79
2022/01/03 00:13:25;;;;;;;7.40;2.30;;;9.10;99.90;;;;;;5021445;28;20504;-78
2022/01/03 00:15:55;;;;;;;6.78;2.40;;;9.10;99.90;;;;;;5021490;28;20100;-77
2022/01/03 00:18:22;;;;;;;5.10;2.15;;;9.10;99.90;;;;;;5018577;28;20056;-78
2022/01/03 00:20:57;;;;;;;6.07;3.40;;;9.20;99.90;;;;;;5020894;28;20233;-78
2022/01/03 00:23:26;;;;;;;3.60;2.22;;;9.30;99.90;;;;;;5019378;28;20111;-78
2022/01/03 00:25:57;;;;;;;6.63;2.17;;;9.30;99.90;;;;;;5018742;28;20135;-77
2022/01/03 00:28:28;;;;;;;4.00;1.80;;;9.30;99.90;;;;;;5019379;28;20045;-78
2022/01/03 00:30:56;;;;;;;5.30;2.28;;;9.40;99.90;;;;;;5018737;28;20152;-76
2022/01/03 00:33:22;;;;;;;5.15;1.85;;;9.50;99.90;;;;;;5018121;28;20046;-77
2022/01/03 00:35:58;;;;;;;3.65;2.17;;;9.50;99.90;;;;;;5019022;28;20045;-77
2022/01/03 00:38:26;;;;;;;3.72;2.33;;;9.50;99.90;;;;;;5019818;28;20110;-76
2022/01/03 00:40:52;;;;;;;11.63;3.28;;;9.60;99.90;;;;;;5031178;28;20080;-76
2022/01/03 00:43:18;;;;;;;4.03;2.28;;;9.60;99.90;;;;;;5022152;28;20897;-77
2022/01/03 00:45:44;;;;;;;4.60;2.47;;;9.60;99.90;;;;;;5039961;28;20040;-77
2022/01/03 00:48:11;;;;;;;6.20;2.67;;;9.60;99.90;;;;;;5022484;28;20056;-77
2022/01/03 00:50:37;;;;;;;10.73;2.58;;;9.60;99.90;;;;;;5022091;28;20061;-77
2022/01/03 00:53:03;;;;;;;7.72;2.70;;;9.70;99.90;;;;;;5039887;28;20040;-78
2022/01/03 00:55:29;;;;;;;8.60;2.45;;;9.70;99.90;;;;;;5040268;28;20057;-77
2022/01/03 00:58:07;;;;;;;9.27;2.85;;;9.70;99.90;;;;;;5022624;28;20052;-77
2022/01/03 01:00:39;;;;;;;6.88;2.65;;;9.70;99.90;;;;;;5040090;28;20049;-77
2022/01/03 01:03:14;;;;;;;9.07;2.22;;;9.70;99.90;;;;;;5019985;28;20048;-77
2022/01/03 01:05:48;;;;;;;9.02;3.03;;;9.70;99.90;;;;;;5020629;28;20140;-77
2022/01/03 01:08:22;;;;;;;12.98;3.33;;;9.70;99.90;;;;;;5038871;28;20049;-78
2022/01/03 01:10:51;;;;;;;8.63;3.78;;;9.70;99.90;;;;;;5039598;28;20044;-77
2022/01/03 01:13:21;;;;;;;14.95;3.72;;;9.70;99.90;;;;;;5021004;28;20045;-78
2022/01/03 01:15:46;;;;;;;11.55;4.13;;;9.70;99.90;;;;;;5039351;28;20080;-78
2022/01/03 01:18:12;;;;;;;10.57;3.92;;;9.60;99.90;;;;;;5020862;28;20215;-77
2022/01/03 01:20:39;;;;;;;15.45;3.83;;;9.60;99.90;;;;;;5038386;28;20126;-78
2022/01/03 01:23:06;;;;;;;8.63;2.55;;;9.70;99.90;;;;;;5021727;28;20072;-77
2022/01/03 01:28:01;;;;;;;11.57;3.60;;;9.60;99.90;;;;;;5038595;28;20053;-77
2022/01/03 01:30:27;;;;;;;10.85;3.53;;;9.60;99.90;;;;;;5021279;28;20060;-77
2022/01/03 01:33:05;;;;;;;9.63;3.97;;;9.60;99.90;;;;;;5021735;28;20606;-77
2022/01/03 01:35:41;;;;;;;10.60;3.05;;;9.60;99.90;;;;;;5038874;28;20099;-77
2022/01/03 01:38:09;;;;;;;14.77;4.13;;;9.60;99.90;;;;;;5021418;28;20071;-77
2022/01/03 01:40:41;;;;;;;9.77;2.90;;;9.60;99.90;;;;;;5020920;28;20067;-76
2022/01/03 01:43:10;;;;;;;12.98;4.22;;;9.60;99.90;;;;;;5020433;28;20563;-76
2022/01/03 01:45:36;;;;;;;8.73;2.50;;;9.70;99.90;;;;;;5038805;28;20743;-76
2022/01/03 01:48:03;;;;;;;11.57;2.97;;;9.70;99.90;;;;;;5021076;28;20797;-77
2022/01/03 01:50:29;;;;;;;8.32;2.78;;;9.70;99.90;;;;;;5038089;28;20915;-76
2022/01/03 01:52:56;;;;;;;7.88;3.08;;;9.80;99.90;;;;;;5038984;28;20049;-76
2022/01/03 01:55:22;;;;;;;10.02;2.92;;;9.80;99.90;;;;;;5020965;28;20057;-76
2022/01/03 01:58:04;;;;;;;10.52;3.28;;;9.90;99.90;;;;;;5020951;28;20057;-76
2022/01/03 02:00:32;;;;;;;17.63;3.70;;;9.80;99.90;;;;;;5039082;28;20052;-76
2022/01/03 02:03:07;;;;;;;8.50;3.13;;;9.80;99.90;;;;;;5038607;28;20139;-76
2022/01/03 02:05:38;;;;;;;6.28;3.30;;;9.80;99.90;;;;;;5032313;28;20542;-77
2022/01/03 02:08:13;;;;;;;10.98;3.83;;;9.80;99.90;;;;;;5015127;28;20405;-77
2022/01/03 02:10:44;;;;;;;22.10;5.63;;;9.90;99.90;;;;;;5037615;28;20044;-76
2022/01/03 02:13:15;;;;;;;11.02;3.92;;;9.90;99.90;;;;;;5038540;28;20049;-77
2022/01/03 02:15:45;;;;;;;10.45;4.45;;;9.90;99.90;;;;;;5019938;28;20049;-77
2022/01/03 02:18:11;;;;;;;11.02;5.00;;;9.90;99.90;;;;;;5037911;28;20056;-77
2022/01/03 02:20:37;;;;;;;6.97;3.42;;;10.00;99.90;;;;;;5020470;28;20056;-76
2022/01/03 02:23:03;;;;;;;10.93;3.95;;;9.90;99.90;;;;;;5038907;28;20044;-76
2022/01/03 02:25:29;;;;;;;12.73;4.63;;;9.90;99.90;;;;;;5037958;28;20838;-77
2022/01/03 02:27:55;;;;;;;10.95;4.05;;;9.90;99.90;;;;;;5020777;28;20192;-78
2022/01/03 02:30:25;;;;;;;11.40;3.63;;;9.90;99.90;;;;;;5020235;28;20056;-77
2022/01/03 02:32:51;;;;;;;11.25;3.38;;;10.00;99.90;;;;;;5038453;28;20045;-78
2022/01/03 02:35:17;;;;;;;9.45;3.63;;;10.00;99.90;;;;;;5020702;28;20048;-76
2022/01/03 02:37:45;;;;;;;12.18;4.38;;;9.90;99.90;;;;;;5019826;28;20041;-77
2022/01/03 02:40:11;;;;;;;9.65;3.78;;;9.90;99.90;;;;;;5020256;28;20067;-76
2022/01/03 02:42:38;;;;;;;11.55;3.53;;;9.90;99.90;;;;;;5019869;28;20103;-76
2022/01/03 02:45:10;;;;;;;11.27;3.85;;;9.80;99.90;;;;;;5037142;28;20045;-77
2022/01/03 02:47:36;;;;;;;13.80;4.05;;;9.90;99.90;;;;;;5019866;28;20061;-77
2022/01/03 02:50:04;;;;;;;19.70;4.45;;;9.90;99.90;;;;;;5019664;28;20049;-76
2022/01/03 02:52:30;;;;;;;14.07;3.28;;;9.90;99.90;;;;;;5037404;28;20076;-77
2022/01/03 02:54:56;;;;;;;13.98;4.05;;;10.00;99.90;;;;;;5037777;28;20160;-77
2022/01/03 02:57:23;;;;;;;11.88;3.47;;;9.90;99.90;;;;;;5019555;28;20178;-78
2022/01/03 02:59:56;;;;;;;12.80;3.75;;;9.90;99.90;;;;;;5036159;28;20037;-77
2022/01/03 03:02:26;;;;;;;11.48;3.42;;;9.90;99.90;;;;;;5015971;28;20088;-77
2022/01/03 03:05:03;;;;;;;12.50;3.53;;;9.90;99.90;;;;;;5040268;28;20049;-77
2022/01/03 03:07:30;;;;;;;14.18;3.83;;;9.90;99.90;;;;;;5041168;28;20523;-76
2022/01/03 03:09:57;;;;;;;16.13;3.95;;;9.90;99.90;;;;;;5023817;28;20695;-77
2022/01/03 03:12:23;;;;;;;12.02;3.42;;;9.90;99.90;;;;;;5022568;28;20088;-76
2022/01/03 03:14:49;;;;;;;12.93;5.15;;;9.90;99.90;;;;;;5022619;28;20156;-77
2022/01/03 03:17:18;;;;;;;11.27;3.42;;;9.90;99.90;;;;;;5023659;28;20461;-77
2022/01/03 03:19:59;;;;;;;17.05;4.18;;;9.90;99.90;;;;;;5024049;28;20048;-76
2022/01/03 03:22:27;;;;;;;15.43;4.43;;;9.90;99.90;;;;;;5024075;28;20460;-77
2022/01/03 03:25:04;;;;;;;11.30;4.18;;;9.80;99.90;;;;;;5039784;28;20036;-77
2022/01/03 03:27:30;;;;;;;18.58;5.20;;;9.80;99.90;;;;;;5041403;28;20053;-77
2022/01/03 03:29:56;;;;;;;12.23;4.32;;;9.80;99.90;;;;;;5022520;28;20843;-77
2022/01/03 03:32:22;;;;;;;11.90;4.60;;;9.80;99.90;;;;;;5022234;28;20045;-77
2022/01/03 03:34:48;;;;;;;14.38;3.58;;;9.70;99.90;;;;;;5022473;28;20045;-77
2022/01/03 03:37:17;;;;;;;12.55;3.90;;;9.70;99.90;;;;;;5022368;28;20149;-77
2022/01/03 03:39:43;;;;;;;12.02;4.28;;;9.70;99.90;;;;;;5040888;28;20052;-77
2022/01/03 03:42:11;;;;;;;18.83;5.13;;;9.60;99.90;;;;;;5022101;28;20127;-77
2022/01/03 03:44:37;;;;;;;9.82;4.07;;;9.60;99.90;;;;;;5039077;28;20091;-77
2022/01/03 03:47:05;;;;;;;8.48;3.40;;;9.50;99.90;;;;;;5040874;28;20124;-77
2022/01/03 03:49:32;;;;;;;9.30;3.20;;;9.50;99.90;;;;;;5040093;28;20060;-76
2022/01/03 03:51:58;;;;;;;10.55;4.72;;;9.50;99.90;;;;;;5039872;28;20465;-77
2022/01/03 03:54:24;;;;;;;18.75;5.18;;;9.60;99.90;;;;;;5022816;28;20052;-76
2022/01/03 03:56:50;;;;;;;10.32;4.32;;;9.50;99.90;;;;;;5022743;28;20052;-78
2022/01/03 03:59:16;;;;;;;15.95;4.25;;;9.50;99.90;;;;;;5040633;28;20037;-77
2022/01/03 04:01:42;;;;;;;10.07;4.13;;;9.50;99.90;;;;;;5022580;28;20052;-78
2022/01/03 04:04:07;;;;;;;15.73;4.65;;;9.50;99.90;;;;;;5040166;28;20048;-78
2022/01/03 04:06:33;;;;;;;16.33;4.03;;;9.50;99.90;;;;;;5041082;28;20091;-77
2022/01/03 04:08:59;;;;;;;16.98;4.68;;;9.50;99.90;;;;;;5040686;28;20102;-77
2022/01/03 04:11:25;;;;;;;21.33;4.25;;;9.50;99.90;;;;;;5022223;28;20561;-77
2022/01/03 04:13:50;;;;;;;15.25;4.20;;;9.50;99.90;;;;;;5022827;28;20092;-77
2022/01/03 04:16:16;;;;;;;13.57;4.60;;;9.60;99.90;;;;;;5040289;28;20054;-78
2022/01/03 04:18:42;;;;;;;16.48;4.13;;;9.60;99.90;;;;;;5023092;28;20080;-77
2022/01/03 04:21:07;;;;;;;9.85;3.63;;;9.60;99.90;;;;;;5041097;28;20960;-77
2022/01/03 04:23:33;;;;;;;11.35;4.60;;;9.60;99.90;;;;;;5022550;28;20053;-78
2022/01/03 04:25:59;;;;;;;14.18;3.83;;;9.60;99.90;;;;;;5040717;28;20044;-77
2022/01/03 04:28:25;;;;;;;21.00;4.43;;;9.60;99.90;;;;;;5034717;28;20057;-77
2022/01/03 04:30:54;;;;;;;11.10;3.45;;;9.70;99.90;;;;;;5021816;28;20041;-77
2022/01/03 04:33:19;;;;;;;27.80;6.47;;;9.70;99.90;;;;;;5022114;28;20048;-77
2022/01/03 04:35:45;;;;;;;11.85;5.38;;;9.70;99.90;;;;;;5040180;28;20052;-77
2022/01/03 04:38:10;;;;;;;10.52;3.75;;;9.70;99.90;;;;;;5021367;28;20131;-77
2022/01/03 04:40:36;;;;;;;7.93;3.65;;;9.70;99.90;;;;;;5039378;28;20138;-77
2022/01/03 04:43:03;;;;;;;9.73;3.55;;;9.70;99.90;;;;;;5039679;28;20692;-76
2022/01/03 04:45:29;;;;;;;13.52;4.13;;;9.70;99.90;;;;;;5021163;28;20055;-77
2022/01/03 04:47:54;;;;;;;21.30;4.28;;;9.70;99.90;;;;;;5040092;28;20040;-76
2022/01/03 04:50:20;;;;;;;14.70;4.18;;;9.70;99.90;;;;;;5039183;28;20404;-77
2022/01/03 04:52:46;;;;;;;12.27;4.30;;;9.70;99.90;;;;;;5037144;28;20044;-76
2022/01/03 04:55:11;;;;;;;14.07;5.55;;;9.70;99.90;;;;;;5037282;28;20696;-78
2022/01/03 04:57:37;;;;;;;19.40;5.68;;;9.70;99.90;;;;;;5019634;28;20166;-78
2022/01/03 05:00:05;;;;;;;11.30;4.43;;;9.70;99.90;;;;;;5036108;28;20044;-77
2022/01/03 05:02:31;;;;;;;10.32;4.35;;;9.70;99.90;;;;;;5037046;28;20049;-77
2022/01/03 05:04:56;;;;;;;15.57;7.25;;;9.70;99.90;;;;;;5037148;28;20463;-77
2022/01/03 05:07:22;;;;;;;10.68;4.00;;;9.70;99.90;;;;;;5036906;28;20144;-77
2022/01/03 05:09:48;;;;;;;22.70;5.55;;;9.70;99.90;;;;;;5018897;28;20049;-78
2022/01/03 05:12:13;;;;;;;10.77;5.13;;;9.70;99.90;;;;;;5036331;28;20602;-77
2022/01/03 05:14:40;;;;;;;18.13;5.15;;;9.70;99.90;;;;;;5018399;28;20825;-77
2022/01/03 05:17:05;;;;;;;16.52;5.15;;;9.60;99.90;;;;;;5036703;28;20057;-78
2022/01/03 05:19:31;;;;;;;11.68;4.35;;;9.60;99.90;;;;;;5018514;28;20045;-77
2022/01/03 05:21:56;;;;;;;12.82;5.03;;;9.60;99.90;;;;;;5019161;28;20056;-77
2022/01/03 05:24:22;;;;;;;13.50;4.45;;;9.60;99.90;;;;;;5018495;28;20067;-78
2022/01/03 05:26:47;;;;;;;12.10;5.40;;;9.60;99.90;;;;;;5017450;28;20485;-77
2022/01/03 05:29:13;;;;;;;12.32;4.93;;;9.60;99.90;;;;;;5018852;28;20136;-78
2022/01/03 05:31:39;;;;;;;15.48;6.65;;;9.60;99.90;;;;;;5011348;28;20064;-78
2022/01/03 05:34:05;;;;;;;14.38;5.78;;;9.60;99.90;;;;;;5035895;28;20085;-77
2022/01/03 05:36:30;;;;;;;17.77;7.35;;;9.70;99.90;;;;;;5036339;28;20621;-79
2022/01/03 05:38:56;;;;;;;17.33;6.10;;;9.70;99.90;;;;;;5018145;28;20059;-78
2022/01/03 05:41:21;;;;;;;14.38;4.78;;;9.60;99.90;;;;;;5017421;28;20060;-77
2022/01/03 05:43:49;;;;;;;12.90;4.30;;;9.70;99.90;;;;;;5036295;28;20060;-77
2022/01/03 05:46:14;;;;;;;14.10;4.32;;;9.60;99.90;;;;;;5018710;28;20067;-77
2022/01/03 05:48:40;;;;;;;16.55;4.78;;;9.60;99.90;;;;;;5018055;28;20832;-77
2022/01/03 05:51:06;;;;;;;15.15;5.00;;;9.60;99.90;;;;;;5018076;28;20850;-76
2022/01/03 05:53:32;;;;;;;14.15;6.13;;;9.70;99.90;;;;;;5036644;28;20044;-77
2022/01/03 05:55:58;;;;;;;20.00;6.32;;;9.70;99.90;;;;;;5035646;28;20152;-77
2022/01/03 05:58:24;;;;;;;10.30;4.15;;;9.70;99.90;;;;;;5036712;28;20564;-77
2022/01/03 06:00:49;;;;;;;23.58;5.68;;;9.70;99.90;;;;;;5035911;28;20045;-76
2022/01/03 06:03:19;;;;;;;19.30;6.47;;;9.70;99.90;;;;;;5017617;28;20842;-77
2022/01/03 06:06:16;;;;;;;14.10;5.63;;;9.70;99.90;;;;;;5036640;28;20060;-76
2022/01/03 06:08:39;;;;;;;13.38;5.47;;;9.70;99.90;;;;;;5038054;28;20155;-78
2022/01/03 06:11:05;;;;;;;19.33;6.45;;;9.70;99.90;;;;;;5020795;28;20056;-77
2022/01/03 06:13:31;;;;;;;10.68;5.28;;;9.70;99.90;;;;;;5038906;28;20155;-77
2022/01/03 06:15:57;;;;;;;10.52;5.03;;;9.70;99.90;;;;;;5020365;28;20059;-77
2022/01/03 06:18:24;;;;;;;14.48;4.90;;;9.60;99.90;;;;;;5038663;28;20052;-77
2022/01/03 06:20:51;;;;;;;17.25;5.38;;;9.60;99.90;;;;;;5020887;28;20053;-77
2022/01/03 06:23:19;;;;;;;13.75;4.50;;;9.60;99.90;;;;;;5038355;28;20045;-76
2022/01/03 06:25:45;;;;;;;10.40;5.65;;;9.60;99.90;;;;;;5020777;28;20067;-77
2022/01/03 06:28:11;;;;;;;18.92;5.38;;;9.50;99.90;;;;;;5020860;28;20060;-77
2022/01/03 06:30:38;;;;;;;20.65;7.60;;;9.50;99.90;;;;;;5020655;28;20475;-76
2022/01/03 06:33:05;;;;;;;13.20;5.47;;;9.50;99.90;;;;;;5021253;28;20059;-77
2022/01/03 06:35:32;;;;;;;11.32;4.47;;;9.50;99.90;;;;;;5038992;28;20166;-76
2022/01/03 06:37:58;;;;;;;16.35;5.07;;;9.50;99.90;;;;;;5040827;28;20947;-76
2022/01/03 06:40:25;;;;;;;14.60;5.57;;;9.50;99.90;;;;;;5024796;28;20061;-76
2022/01/03 06:42:51;;;;;;;13.20;7.13;;;9.60;99.90;;;;;;5024860;28;20061;-76
2022/01/03 06:45:18;;;;;;;21.88;4.72;;;9.60;99.90;;;;;;5023969;28;20048;-76
2022/01/03 06:47:43;;;;;;;18.08;4.70;;;9.60;99.90;;;;;;5024421;28;20052;-76
2022/01/03 06:50:10;;;;;;;16.20;5.32;;;9.60;99.90;;;;;;5024693;28;20052;-76
2022/01/03 06:52:36;;;;;;;17.48;6.60;;;9.60;99.90;;;;;;5042356;28;20045;-76
2022/01/03 06:55:03;;;;;;;16.38;5.85;;;9.60;99.90;;;;;;5024333;28;20049;-76
2022/01/03 06:57:29;;;;;;;26.40;6.30;;;9.60;99.90;;;;;;5042060;28;20798;-75
2022/01/03 06:59:54;;;;;;;21.50;4.05;;;9.60;99.90;;;;;;5023717;28;20087;-75
2022/01/03 07:02:21;;;;;;;20.95;6.03;;;9.60;99.90;;;;;;5024456;28;20504;-76
2022/01/03 07:04:47;;;;;;;19.75;5.85;;;9.50;99.90;;;;;;5042119;28;20057;-76
2022/01/03 07:07:13;;;;;;;21.75;8.77;;;9.50;99.90;;;;;;5023570;28;20049;-76
2022/01/03 07:09:39;;;;;;;18.23;4.97;;;9.50;99.90;;;;;;5023411;28;20053;-76
2022/01/03 07:12:05;;;;;;;22.25;6.03;;;9.60;99.90;;;;;;5041391;28;20102;-76
2022/01/03 07:19:49;;;;;;;10.40;4.85;;;9.60;99.90;;;;;;5021538;28;20123;-76
2022/01/03 07:22:15;;;;;;;18.70;6.00;;;9.70;99.90;;;;;;5022715;28;20147;-76
2022/01/03 07:24:41;;;;;;;16.67;5.00;;;9.60;99.90;;;;;;5040801;28;20515;-75
2022/01/03 07:27:10;;;;;;;17.33;5.72;;;9.60;99.90;;;;;;5040714;28;20115;-76
2022/01/03 07:29:36;;;;;;;21.23;5.75;;;9.60;99.90;;;;;;5020864;28;20399;-74
2022/01/03 07:32:02;;;;;;;20.58;6.38;;;9.60;99.90;;;;;;5023278;28;20059;-74
2022/01/03 07:34:28;;;;;;;18.10;5.88;;;9.60;99.90;;;;;;5023309;28;20049;-74
2022/01/03 07:36:54;;;;;;;12.93;5.97;;;9.60;99.90;;;;;;5023106;28;20048;-74
2022/01/03 07:39:19;;;;;;;10.55;4.35;;;9.60;99.90;;;;;;5022670;28;20048;-74
2022/01/03 07:41:45;;;;;;;16.33;6.18;;;9.60;99.90;;;;;;5022209;28;20061;-75
2022/01/03 07:44:11;;;;;;;24.95;6.53;;;9.60;99.90;;;;;;5022523;28;20045;-74
2022/01/03 07:46:37;;;;;;;22.38;6.43;;;9.60;99.90;;;;;;5021987;28;20059;-74
2022/01/03 07:49:03;;;;;;;20.10;5.20;;;9.60;99.90;;;;;;5040017;28;20044;-74
2022/01/03 07:51:29;;;;;;;20.65;6.78;;;9.60;99.90;;;;;;5037059;28;20052;-74
2022/01/03 07:53:54;;;;;;;23.65;6.10;;;9.60;99.90;;;;;;5038475;28;20123;-74
2022/01/03 07:56:20;;;;;;;16.35;5.35;;;9.50;99.90;;;;;;5019272;28;20053;-74
2022/01/03 07:58:46;;;;;;;10.70;5.28;;;9.50;99.90;;;;;;5017494;28;20053;-73
2022/01/03 08:01:12;;;;;;;15.98;6.32;;;9.50;99.90;;;;;;5019734;28;20087;-74
2022/01/03 08:03:38;;;;;;;16.83;5.65;;;9.50;99.90;;;;;;5019525;28;20045;-75
2022/01/03 08:06:05;;;;;;;17.15;5.20;;;9.50;99.90;;;;;;5019869;28;20093;-74
2022/01/03 08:08:30;;;;;;;17.75;4.95;;;9.50;99.90;;;;;;5030295;28;20159;-74
2022/01/03 08:10:56;;;;;;;21.48;5.28;;;9.60;99.90;;;;;;5037587;28;20868;-74
2022/01/03 08:13:22;;;;;;;23.02;6.55;;;9.60;99.90;;;;;;5019754;28;20052;-74
2022/01/03 08:15:47;;;;;;;15.93;4.63;;;9.60;99.90;;;;;;5036827;28;20123;-74
2022/01/03 08:18:13;;;;;;;10.30;5.35;;;9.70;99.90;;;;;;5036665;28;20768;-74
2022/01/03 08:20:39;;;;;;;19.50;6.03;;;9.70;99.90;;;;;;5018813;28;20049;-75
2022/01/03 08:23:05;;;;;;;11.93;5.25;;;9.80;99.90;;;;;;5019354;28;20087;-74
2022/01/03 08:25:33;;;;;;;12.55;4.45;;;9.80;99.90;;;;;;5019848;28;20136;-75
2022/01/03 08:27:59;;;;;;;18.50;4.32;;;9.80;99.90;;;;;;5019120;28;20056;-74
2022/01/03 08:30:24;;;;;;;16.42;4.78;;;9.90;99.90;;;;;;5017678;28;20052;-75
2022/01/03 08:32:50;;;;;;;13.57;3.92;;;9.90;99.90;;;;;;5038001;28;20045;-74
2022/01/03 08:35:16;;;;;;;18.27;5.20;;;9.90;99.90;;;;;;5017829;28;20056;-75
2022/01/03 08:37:41;;;;;;;14.15;4.75;;;9.90;99.90;;;;;;5035180;28;20410;-74
2022/01/03 08:40:07;;;;;;;26.05;6.00;;;9.90;99.90;;;;;;5036295;28;20080;-74
2022/01/03 08:42:34;;;;;;;16.27;5.07;;;10.00;99.90;;;;;;5036418;28;20045;-74
2022/01/03 08:45:03;;;;;;;16.08;4.68;;;10.00;99.90;;;;;;5035985;28;20111;-74
2022/01/03 08:47:29;;;;;;;17.48;5.30;;;10.00;99.90;;;;;;5017673;28;20045;-74
2022/01/03 08:49:55;;;;;;;15.88;5.07;;;10.00;99.90;;;;;;5018203;28;20049;-74
2022/01/03 08:52:20;;;;;;;18.58;5.53;;;10.00;99.90;;;;;;5034511;28;20061;-74
2022/01/03 08:54:46;;;;;;;11.85;4.05;;;10.00;99.90;;;;;;5017272;28;20131;-74
2022/01/03 08:57:12;;;;;;;15.65;5.13;;;10.10;99.90;;;;;;5035011;28;20048;-75
2022/01/03 08:59:39;;;;;;;19.30;4.75;;;10.10;99.90;;;;;;5016374;28;20036;-74
2022/01/03 09:02:04;;;;;;;13.38;4.80;;;10.10;99.90;;;;;;5013672;28;20060;-75
2022/01/03 09:04:30;;;;;;;13.88;4.55;;;10.10;99.90;;;;;;5035321;28;20041;-74
2022/01/03 09:06:57;;;;;;;13.38;5.10;;;10.10;99.90;;;;;;5019962;28;20123;-74
2022/01/03 09:09:23;;;;;;;9.48;3.75;;;10.10;99.90;;;;;;5018398;28;20072;-74
2022/01/03 09:11:48;;;;;;;14.80;4.70;;;10.10;99.90;;;;;;5018760;28;20056;-75
2022/01/03 09:14:14;;;;;;;12.45;4.28;;;10.20;99.90;;;;;;4673811;28;10000238;-75
2022/01/03 09:16:40;;;;;;;13.82;4.75;;;10.20;99.90;;;;;;5033251;28;20045;-75
2022/01/03 09:19:05;;;;;;;16.08;4.65;;;10.20;99.90;;;;;;5013696;28;20052;-74
2022/01/03 09:21:31;;;;;;;17.52;6.13;;;10.20;99.90;;;;;;5014917;28;20061;-74
2022/01/03 09:29:36;;;;;;;15.75;5.22;;;10.20;99.90;;;;;;5033553;28;20095;-74
2022/01/03 09:32:02;;;;;;;21.17;4.80;;;10.20;99.90;;;;;;5034333;28;20045;-74
2022/01/03 09:34:28;;;;;;;13.02;4.63;;;10.30;99.90;;;;;;5016662;28;20036;-74
2022/01/03 09:36:54;;;;;;;16.38;4.35;;;10.30;99.90;;;;;;5035352;28;20044;-74
2022/01/03 09:39:19;;;;;;;14.32;6.75;;;10.30;99.90;;;;;;5034896;28;20151;-74
2022/01/03 09:42:03;;;;;;;14.20;4.20;;;10.30;99.90;;;;;;5016340;28;20088;-74
2022/01/03 09:44:32;;;;;;;19.83;5.80;;;10.30;99.90;;;;;;5016820;28;20076;-75
2022/01/03 09:47:04;;;;;;;17.25;5.63;;;10.30;99.90;;;;;;5016729;28;20253;-74
2022/01/03 09:49:34;;;;;;;18.42;4.43;;;10.40;99.90;;;;;;5035024;28;20049;-74
2022/01/03 09:52:01;;;;;;;21.45;6.05;;;10.50;99.90;;;;;;5009483;28;20092;-74
2022/01/03 09:54:28;;;;;;;11.45;4.70;;;10.50;99.90;;;;;;5033728;28;20674;-75
2022/01/03 09:56:55;;;;;;;11.48;5.72;;;10.50;99.90;;;;;;5017815;28;20067;-74
2022/01/03 09:59:21;;;;;;;18.60;4.35;;;10.50;99.90;;;;;;5034319;28;20072;-74
2022/01/03 10:01:46;;;;;;;10.70;4.15;;;10.60;99.90;;;;;;5034344;28;20095;-74
2022/01/03 10:04:14;;;;;;;16.50;4.88;;;10.60;99.90;;;;;;5016359;28;20040;-74
2022/01/03 10:06:39;;;;;;;15.18;4.65;;;10.60;99.90;;;;;;5031942;28;20479;-74
2022/01/03 10:09:05;;;;;;;10.98;4.47;;;10.70;99.90;;;;;;5030965;28;20056;-75
2022/01/03 10:11:31;;;;;;;15.65;4.53;;;10.60;99.90;;;;;;5031104;28;20775;-75
2022/01/03 10:13:59;;;;;;;20.98;5.07;;;10.60;99.90;;;;;;5013476;28;20060;-70
2022/01/03 10:16:25;;;;;;;12.80;4.53;;;10.60;99.90;;;;;;5031456;28;20900;-73
2022/01/03 10:18:51;;;;;;;9.52;4.32;;;10.60;99.90;;;;;;5014197;28;20054;-73
2022/01/03 10:21:38;;;;;;;19.88;7.35;;;10.60;99.90;;;;;;5013833;28;20095;-75
2022/01/03 10:24:05;;;;;;;13.00;4.50;;;10.60;99.90;;;;;;5025071;28;20053;-75
2022/01/03 10:26:30;;;;;;;11.38;5.40;;;10.60;99.90;;;;;;4994449;28;20041;-75
2022/01/03 10:29:20;;;;;;;11.63;5.15;;;10.60;99.90;;;;;;5030253;28;20113;-76
2022/01/03 10:31:51;;;;;;;13.00;4.55;;;10.60;99.90;;;;;;5013023;28;20056;-75
2022/01/03 10:34:19;;;;;;;13.23;4.47;;;10.60;99.90;;;;;;5031715;28;20056;-75
2022/01/03 10:36:47;;;;;;;19.02;4.75;;;10.60;99.90;;;;;;5013041;28;20107;-75
2022/01/03 10:39:17;;;;;;;12.30;5.20;;;10.60;99.90;;;;;;5034057;28;20899;-74
2022/01/03 10:41:45;;;;;;;14.95;4.05;;;10.60;99.90;;;;;;5033325;28;20147;-70
2022/01/03 10:44:27;;;;;;;19.27;5.60;;;10.60;99.90;;;;;;5034891;28;20638;-75
2022/01/03 10:46:53;;;;;;;23.05;4.95;;;10.60;99.90;;;;;;5035365;28;20148;-74
2022/01/03 10:49:20;;;;;;;11.65;4.10;;;10.70;99.90;;;;;;5016500;28;20185;-74
2022/01/03 10:51:46;;;;;;;16.73;4.80;;;10.60;99.90;;;;;;5034766;28;20061;-74
2022/01/03 10:54:16;;;;;;;15.50;5.78;;;10.60;99.90;;;;;;5017027;28;20049;-74
2022/01/03 10:56:50;;;;;;;16.00;4.63;;;10.60;99.90;;;;;;5034846;28;20063;-75
2022/01/03 10:59:16;;;;;;;19.15;5.13;;;10.70;99.90;;;;;;5012194;28;20917;-74
2022/01/03 11:01:46;;;;;;;15.50;6.38;;;10.70;99.90;;;;;;5034513;28;20156;-74
2022/01/03 11:04:26;;;;;;;15.50;5.03;;;10.80;99.90;;;;;;5015587;28;20059;-74
2022/01/03 11:13:23;;;;;;;18.30;5.33;;;10.80;99.90;;;;;;5016581;28;20554;-73
2022/01/03 11:15:55;;;;;;;14.88;5.55;;;11.00;99.90;;;;;;5007634;28;20882;-73
2022/01/03 11:18:25;;;;;;;13.93;4.30;;;11.00;99.90;;;;;;5019136;28;20064;-74
2022/01/03 11:21:16;;;;;;;12.85;4.25;;;11.00;99.90;;;;;;5018752;28;20045;-74
2022/01/03 11:23:44;;;;;;;14.98;4.25;;;11.00;99.90;;;;;;5018667;28;20098;-74
2022/01/03 11:26:18;;;;;;;15.10;4.35;;;11.00;99.90;;;;;;5020960;28;20056;-74
2022/01/03 11:28:45;;;;;;;12.52;4.30;;;11.00;99.90;;;;;;5022156;28;20052;-73
2022/01/03 11:31:13;;;;;;;15.05;4.47;;;11.00;99.90;;;;;;5021971;28;20729;-74
2022/01/03 11:33:39;;;;;;;10.80;4.63;;;11.00;99.90;;;;;;5039512;28;20118;-74
2022/01/03 11:36:06;;;;;;;10.63;5.45;;;11.00;99.90;;;;;;5022327;28;20049;-74
2022/01/03 11:38:36;;;;;;;14.52;4.25;;;11.10;99.90;;;;;;5022405;28;20049;-75
2022/01/03 11:41:04;;;;;;;15.73;4.32;;;11.10;99.90;;;;;;5022480;28;20057;-74
2022/01/03 11:43:32;;;;;;;13.07;4.60;;;11.10;99.90;;;;;;5023089;28;20079;-74
2022/01/03 11:45:58;;;;;;;14.65;4.80;;;11.20;99.90;;;;;;5023311;28;20741;-74
2022/01/03 11:48:28;;;;;;;18.88;4.57;;;11.30;99.90;;;;;;5022739;28;20052;-74
2022/01/03 11:51:03;;;;;;;14.48;5.35;;;11.30;99.90;;;;;;5023481;28;20059;-75
2022/01/03 11:53:30;;;;;;;16.23;4.70;;;11.40;99.90;;;;;;5040752;28;20048;-74
2022/01/03 11:55:58;;;;;;;9.10;3.75;;;11.30;99.90;;;;;;5023425;28;20427;-75
2022/01/03 11:59:18;;;;;;;13.00;4.65;;;11.30;99.90;;;;;;5040958;28;20107;-75
2022/01/03 12:04:33;;;;;;;15.70;4.53;;;11.30;99.90;;;;;;5038425;28;20103;-76
2022/01/03 12:07:09;;;;;;;14.93;4.00;;;11.30;99.90;;;;;;5020170;28;20100;-75
2022/01/03 12:09:43;;;;;;;15.35;5.18;;;11.30;99.90;;;;;;5037675;28;20052;-76
2022/01/03 12:12:27;;;;;;;14.90;4.45;;;11.20;99.90;;;;;;5038511;28;20060;-76
2022/01/03 12:14:53;;;;;;;21.83;4.72;;;11.20;99.90;;;;;;5037276;28;20094;-76
2022/01/03 12:17:19;;;;;;;18.60;6.00;;;11.10;99.90;;;;;;5038036;28;20048;-76
2022/01/03 12:19:46;;;;;;;17.23;4.47;;;11.10;99.90;;;;;;5020046;28;20193;-75
2022/01/03 12:22:19;;;;;;;8.13;3.63;;;11.20;99.90;;;;;;5035229;28;20823;-76
2022/01/03 12:24:52;;;;;;;14.57;4.45;;;11.20;99.90;;;;;;5011111;28;20165;-75
2022/01/03 12:27:24;;;;;;;14.07;4.80;;;11.20;99.90;;;;;;5017551;28;20053;-76
2022/01/03 12:29:56;;;;;;;17.48;5.15;;;11.30;99.90;;;;;;5018151;28;20055;-76
2022/01/03 12:32:23;;;;;;;10.07;3.83;;;11.30;99.90;;;;;;5018838;28;20144;-75
2022/01/03 12:37:35;;;;;;;8.63;3.63;;;11.50;99.90;;;;;;5018482;28;20072;-75
2022/01/03 12:40:03;;;;;;;16.08;4.85;;;11.60;99.90;;;;;;5033568;28;20056;-76
2022/01/03 12:42:53;;;;;;;6.93;3.40;;;11.40;99.90;;;;;;5016716;28;20057;-75
2022/01/03 12:45:39;;;;;;;10.95;3.85;;;11.60;99.90;;;;;;5017004;28;20133;-75
2022/01/03 12:48:10;;;;;;;17.67;4.95;;;11.40;99.90;;;;;;5013535;28;20048;-75
2022/01/03 12:50:51;;;;;;;14.18;4.82;;;11.40;99.90;;;;;;5017758;28;20057;-75
2022/01/03 12:53:32;;;;;;;12.07;4.30;;;11.30;99.90;;;;;;5018864;28;20053;-75
2022/01/03 12:56:00;;;;;;;12.73;3.97;;;11.20;99.90;;;;;;5011461;28;20063;-75
2022/01/03 12:58:26;;;;;;;13.98;6.28;;;11.10;99.90;;;;;;5016208;28;20062;-75
2022/01/03 13:01:10;;;;;;;15.98;4.95;;;11.20;99.90;;;;;;5034266;28;20508;-74
2022/01/03 13:03:39;;;;;;;15.57;4.05;;;11.20;99.90;;;;;;5035484;28;20061;-75
2022/01/03 13:06:21;;;;;;;13.10;5.43;;;11.20;99.90;;;;;;5018014;28;20049;-74
2022/01/03 13:08:56;;;;;;;13.07;3.95;;;11.20;99.90;;;;;;5019292;28;20210;-74
2022/01/03 13:11:32;;;;;;;12.25;4.97;;;11.20;99.90;;;;;;5017948;28;20064;-74
2022/01/03 13:14:21;;;;;;;22.23;5.13;;;11.20;99.90;;;;;;5017437;28;20881;-75
2022/01/03 13:16:58;;;;;;;10.40;3.75;;;11.20;99.90;;;;;;5017296;28;20052;-75